DLH51A EDDF-LOWS
Flight info
| Callsign | DLH51A |
|---|---|
| Flight time | 0h 44m |
| Altitude | 29000 |
| Route | CINDY8S/18 CINDY Z74 HAREM DCT ASLEP DCT TAKUT DCT DINKU L603 OLETU T702 BADIT BADIT2R |
| Aircraft | A319/M-SDE3FGHIRWY/LB1 |
Departure
| Time | 2026-05-05 17:15 |
|---|---|
| Airport | Frankfurt Main Airport (EDDF) |
Arrival
| Time | 2026-05-05 17:59 |
|---|---|
| Airport | Salzburg Airport (LOWS) |
| Time | Latitude | Longitude | Altitude | Speed | Heading |
|---|---|---|---|---|---|
| 2026-05-05 16:54 | 50.03651 | 8.53946 | 342 ft | 0 kts | 160° |
| 2026-05-05 17:06 | 50.03647 | 8.53948 | 349 ft | 2 kts | 160° |
| 2026-05-05 17:06 | 50.03631 | 8.53957 | 350 ft | 3 kts | 159° |
| 2026-05-05 17:06 | 50.03602 | 8.53971 | 341 ft | 5 kts | 174° |
| 2026-05-05 17:07 | 50.03571 | 8.53940 | 337 ft | 6 kts | 233° |
| 2026-05-05 17:07 | 50.03561 | 8.53907 | 341 ft | 7 kts | 245° |
| 2026-05-05 17:07 | 50.03545 | 8.53845 | 337 ft | 8 kts | 250° |
| 2026-05-05 17:07 | 50.03525 | 8.53762 | 338 ft | 7 kts | 249° |
| 2026-05-05 17:08 | 50.03510 | 8.53698 | 337 ft | 5 kts | 250° |
| 2026-05-05 17:08 | 50.03499 | 8.53653 | 337 ft | 5 kts | 250° |
| 2026-05-05 17:08 | 50.03484 | 8.53590 | 337 ft | 7 kts | 249° |
| 2026-05-05 17:08 | 50.03462 | 8.53498 | 336 ft | 10 kts | 250° |
| 2026-05-05 17:09 | 50.03435 | 8.53384 | 338 ft | 13 kts | 249° |
| 2026-05-05 17:09 | 50.03414 | 8.53298 | 337 ft | 7 kts | 250° |
| 2026-05-05 17:09 | 50.03400 | 8.53237 | 334 ft | 5 kts | 249° |
| 2026-05-05 17:09 | 50.03388 | 8.53188 | 334 ft | 5 kts | 250° |
| 2026-05-05 17:10 | 50.03369 | 8.53107 | 335 ft | 10 kts | 249° |
| 2026-05-05 17:10 | 50.03348 | 8.53022 | 336 ft | 7 kts | 249° |
| 2026-05-05 17:10 | 50.03334 | 8.52963 | 335 ft | 4 kts | 249° |
| 2026-05-05 17:10 | 50.03323 | 8.52918 | 334 ft | 6 kts | 250° |
| 2026-05-05 17:11 | 50.03309 | 8.52859 | 334 ft | 4 kts | 250° |
| 2026-05-05 17:11 | 50.03302 | 8.52831 | 333 ft | 1 kts | 250° |
| 2026-05-05 17:11 | 50.03298 | 8.52812 | 333 ft | 3 kts | 250° |
| 2026-05-05 17:11 | 50.03291 | 8.52782 | 335 ft | 2 kts | 250° |
| 2026-05-05 17:12 | 50.03287 | 8.52766 | 332 ft | 0 kts | 250° |
| 2026-05-05 17:12 | 50.03281 | 8.52742 | 333 ft | 4 kts | 250° |
| 2026-05-05 17:13 | 50.03262 | 8.52661 | 335 ft | 8 kts | 249° |
| 2026-05-05 17:13 | 50.03232 | 8.52603 | 334 ft | 6 kts | 202° |
| 2026-05-05 17:13 | 50.03197 | 8.52596 | 336 ft | 0 kts | 180° |
| 2026-05-05 17:14 | 50.03126 | 8.52597 | 336 ft | 42 kts | 179° |
| 2026-05-05 17:14 | 50.02554 | 8.52601 | 333 ft | 119 kts | 179° |
| 2026-05-05 17:14 | 50.01525 | 8.52611 | 475 ft | 165 kts | 181° |
| 2026-05-05 17:15 | 50.00364 | 8.52637 | 1162 ft | 170 kts | 181° |
| 2026-05-05 17:15 | 49.99185 | 8.52656 | 2000 ft | 169 kts | 183° |
| 2026-05-05 17:15 | 49.98014 | 8.52670 | 2824 ft | 168 kts | 180° |
| 2026-05-05 17:15 | 49.96892 | 8.53170 | 3573 ft | 172 kts | 153° |
| 2026-05-05 17:16 | 49.95952 | 8.54497 | 3952 ft | 203 kts | 127° |
| 2026-05-05 17:16 | 49.95178 | 8.56573 | 4005 ft | 233 kts | 121° |
| 2026-05-05 17:16 | 49.94398 | 8.58804 | 4006 ft | 237 kts | 116° |
| 2026-05-05 17:16 | 49.94011 | 8.61349 | 4016 ft | 258 kts | 95° |
| 2026-05-05 17:17 | 49.93919 | 8.64179 | 4012 ft | 271 kts | 94° |
| 2026-05-05 17:17 | 49.93651 | 8.67141 | 4849 ft | 274 kts | 108° |
| 2026-05-05 17:17 | 49.92867 | 8.69763 | 5990 ft | 272 kts | 126° |
| 2026-05-05 17:17 | 49.91598 | 8.71917 | 7038 ft | 272 kts | 144° |
| 2026-05-05 17:18 | 49.90053 | 8.73632 | 8084 ft | 274 kts | 147° |
| 2026-05-05 17:18 | 49.88594 | 8.75578 | 9099 ft | 281 kts | 134° |
| 2026-05-05 17:18 | 49.87466 | 8.78095 | 10045 ft | 290 kts | 122° |
| 2026-05-05 17:18 | 49.86440 | 8.80945 | 10475 ft | 314 kts | 121° |
| 2026-05-05 17:19 | 49.85356 | 8.83966 | 11158 ft | 326 kts | 122° |
| 2026-05-05 17:19 | 49.84236 | 8.87081 | 11888 ft | 335 kts | 122° |
| 2026-05-05 17:19 | 49.83089 | 8.90267 | 12728 ft | 341 kts | 122° |
| 2026-05-05 17:19 | 49.81920 | 8.93500 | 13572 ft | 346 kts | 122° |
| 2026-05-05 17:20 | 49.80723 | 8.96772 | 14324 ft | 351 kts | 123° |
| 2026-05-05 17:20 | 49.79452 | 9.00009 | 15115 ft | 353 kts | 125° |
| 2026-05-05 17:20 | 49.78116 | 9.03209 | 15934 ft | 355 kts | 126° |
| 2026-05-05 17:20 | 49.76748 | 9.06403 | 16719 ft | 357 kts | 126° |
| 2026-05-05 17:21 | 49.75383 | 9.09570 | 17488 ft | 360 kts | 126° |
| 2026-05-05 17:21 | 49.73992 | 9.12806 | 18226 ft | 363 kts | 126° |
| 2026-05-05 17:21 | 49.72594 | 9.16076 | 18910 ft | 366 kts | 126° |
| 2026-05-05 17:22 | 49.69780 | 9.22708 | 20313 ft | 371 kts | 125° |
| 2026-05-05 17:22 | 49.68364 | 9.26052 | 20991 ft | 374 kts | 125° |
| 2026-05-05 17:22 | 49.66931 | 9.29432 | 21669 ft | 377 kts | 125° |
| 2026-05-05 17:22 | 49.65487 | 9.32833 | 22333 ft | 380 kts | 125° |
| 2026-05-05 17:23 | 49.64031 | 9.36252 | 22996 ft | 383 kts | 124° |
| 2026-05-05 17:23 | 49.62571 | 9.39719 | 23603 ft | 386 kts | 122° |
| 2026-05-05 17:23 | 49.61401 | 9.43463 | 24136 ft | 391 kts | 112° |
| 2026-05-05 17:23 | 49.60547 | 9.47462 | 24676 ft | 393 kts | 110° |
| 2026-05-05 17:24 | 49.59698 | 9.51477 | 25217 ft | 395 kts | 110° |
| 2026-05-05 17:24 | 49.58834 | 9.55509 | 25752 ft | 397 kts | 110° |
| 2026-05-05 17:24 | 49.57959 | 9.59559 | 26277 ft | 399 kts | 110° |
| 2026-05-05 17:24 | 49.57075 | 9.63637 | 26797 ft | 401 kts | 111° |
| 2026-05-05 17:25 | 49.56191 | 9.67710 | 27311 ft | 404 kts | 111° |
| 2026-05-05 17:25 | 49.55597 | 9.70446 | 27632 ft | 406 kts | 111° |
| 2026-05-05 17:25 | 49.54389 | 9.75992 | 28305 ft | 409 kts | 111° |
| 2026-05-05 17:25 | 49.53472 | 9.80149 | 28732 ft | 411 kts | 113° |
| 2026-05-05 17:26 | 49.52235 | 9.84079 | 28831 ft | 402 kts | 124° |
| 2026-05-05 17:26 | 49.50625 | 9.87456 | 28836 ft | 382 kts | 130° |
| 2026-05-05 17:26 | 49.48981 | 9.90591 | 28826 ft | 372 kts | 131° |
| 2026-05-05 17:27 | 49.45766 | 9.96680 | 28838 ft | 368 kts | 131° |
| 2026-05-05 17:27 | 49.42540 | 10.02775 | 28838 ft | 368 kts | 131° |
| 2026-05-05 17:28 | 49.39312 | 10.08870 | 28837 ft | 368 kts | 131° |
| 2026-05-05 17:28 | 49.36083 | 10.14950 | 28839 ft | 368 kts | 131° |
| 2026-05-05 17:29 | 49.32846 | 10.21033 | 28841 ft | 368 kts | 131° |
| 2026-05-05 17:29 | 49.29612 | 10.27099 | 28821 ft | 367 kts | 131° |
| 2026-05-05 17:30 | 49.26366 | 10.33151 | 28837 ft | 367 kts | 132° |
| 2026-05-05 17:30 | 49.23069 | 10.39113 | 28838 ft | 365 kts | 137° |
| 2026-05-05 17:31 | 49.19456 | 10.44515 | 28858 ft | 365 kts | 138° |
| 2026-05-05 17:31 | 49.15808 | 10.49923 | 28867 ft | 365 kts | 138° |
| 2026-05-05 17:32 | 49.12155 | 10.55325 | 28866 ft | 365 kts | 138° |
| 2026-05-05 17:32 | 49.08505 | 10.60737 | 28866 ft | 366 kts | 138° |
| 2026-05-05 17:33 | 49.04854 | 10.66140 | 28837 ft | 366 kts | 139° |
| 2026-05-05 17:33 | 49.01195 | 10.71533 | 28858 ft | 366 kts | 139° |
| 2026-05-05 17:34 | 48.97531 | 10.76913 | 28860 ft | 366 kts | 139° |
| 2026-05-05 17:34 | 48.93865 | 10.82279 | 28837 ft | 365 kts | 139° |
| 2026-05-05 17:35 | 48.90206 | 10.87625 | 28831 ft | 365 kts | 139° |
| 2026-05-05 17:35 | 48.86575 | 10.92944 | 28810 ft | 365 kts | 139° |
| 2026-05-05 17:36 | 48.82912 | 10.98304 | 28806 ft | 365 kts | 139° |
| 2026-05-05 17:36 | 48.79243 | 11.03648 | 28782 ft | 366 kts | 140° |
| 2026-05-05 17:36 | 48.77402 | 11.06322 | 28678 ft | 369 kts | 140° |
| 2026-05-05 17:37 | 48.76164 | 11.08118 | 28235 ft | 373 kts | 140° |
| 2026-05-05 17:37 | 48.74295 | 11.10833 | 27776 ft | 370 kts | 140° |
| 2026-05-05 17:37 | 48.72442 | 11.13521 | 27341 ft | 367 kts | 140° |
| 2026-05-05 17:37 | 48.70604 | 11.16178 | 26906 ft | 364 kts | 140° |
| 2026-05-05 17:38 | 48.68776 | 11.18813 | 26456 ft | 361 kts | 140° |
| 2026-05-05 17:38 | 48.66964 | 11.21419 | 26038 ft | 358 kts | 140° |
| 2026-05-05 17:38 | 48.65164 | 11.24003 | 25611 ft | 355 kts | 140° |
| 2026-05-05 17:38 | 48.63532 | 11.26815 | 25152 ft | 357 kts | 130° |
| 2026-05-05 17:39 | 48.62056 | 11.29818 | 24700 ft | 355 kts | 130° |
| 2026-05-05 17:39 | 48.60581 | 11.32800 | 24229 ft | 353 kts | 130° |
| 2026-05-05 17:39 | 48.59110 | 11.35761 | 23751 ft | 351 kts | 131° |
| 2026-05-05 17:39 | 48.57644 | 11.38706 | 23272 ft | 350 kts | 131° |
| 2026-05-05 17:40 | 48.56179 | 11.41640 | 22766 ft | 348 kts | 131° |
| 2026-05-05 17:40 | 48.54726 | 11.44547 | 22303 ft | 346 kts | 130° |
| 2026-05-05 17:40 | 48.53288 | 11.47430 | 21845 ft | 343 kts | 130° |
| 2026-05-05 17:40 | 48.51856 | 11.50302 | 21397 ft | 341 kts | 130° |
| 2026-05-05 17:41 | 48.50434 | 11.53145 | 20963 ft | 339 kts | 130° |
| 2026-05-05 17:41 | 48.49015 | 11.55972 | 20516 ft | 337 kts | 131° |
| 2026-05-05 17:41 | 48.47621 | 11.58751 | 20089 ft | 336 kts | 130° |
| 2026-05-05 17:41 | 48.46437 | 11.61812 | 19830 ft | 342 kts | 117° |
| 2026-05-05 17:42 | 48.45596 | 11.65193 | 19806 ft | 345 kts | 113° |
| 2026-05-05 17:42 | 48.44780 | 11.68605 | 19811 ft | 346 kts | 113° |
| 2026-05-05 17:42 | 48.43959 | 11.72007 | 19795 ft | 346 kts | 114° |
| 2026-05-05 17:42 | 48.43135 | 11.75410 | 19808 ft | 346 kts | 114° |
| 2026-05-05 17:43 | 48.42310 | 11.78806 | 19814 ft | 346 kts | 114° |
| 2026-05-05 17:43 | 48.41486 | 11.82205 | 19812 ft | 345 kts | 114° |
| 2026-05-05 17:43 | 48.40663 | 11.85604 | 19812 ft | 346 kts | 114° |
| 2026-05-05 17:43 | 48.39842 | 11.89002 | 19811 ft | 346 kts | 114° |
| 2026-05-05 17:44 | 48.39019 | 11.92404 | 19650 ft | 346 kts | 114° |
| 2026-05-05 17:44 | 48.38194 | 11.95795 | 18616 ft | 354 kts | 113° |
| 2026-05-05 17:44 | 48.37326 | 11.99335 | 17682 ft | 356 kts | 113° |
| 2026-05-05 17:44 | 48.36473 | 12.02812 | 16845 ft | 354 kts | 113° |
| 2026-05-05 17:45 | 48.35624 | 12.06283 | 16053 ft | 351 kts | 113° |
| 2026-05-05 17:45 | 48.34787 | 12.09715 | 15313 ft | 348 kts | 113° |
| 2026-05-05 17:45 | 48.33957 | 12.13113 | 14582 ft | 345 kts | 113° |
| 2026-05-05 17:45 | 48.33145 | 12.16430 | 13903 ft | 341 kts | 113° |
| 2026-05-05 17:46 | 48.32333 | 12.19731 | 13444 ft | 331 kts | 113° |
| 2026-05-05 17:46 | 48.31549 | 12.22915 | 13087 ft | 320 kts | 113° |
| 2026-05-05 17:46 | 48.30780 | 12.26033 | 12759 ft | 317 kts | 113° |
| 2026-05-05 17:46 | 48.30016 | 12.29125 | 12433 ft | 314 kts | 113° |
| 2026-05-05 17:47 | 48.29258 | 12.32194 | 12102 ft | 313 kts | 113° |
| 2026-05-05 17:47 | 48.28501 | 12.35246 | 11772 ft | 311 kts | 114° |
| 2026-05-05 17:47 | 48.27760 | 12.38228 | 11453 ft | 309 kts | 113° |
| 2026-05-05 17:47 | 48.27011 | 12.41240 | 11130 ft | 307 kts | 114° |
| 2026-05-05 17:48 | 48.26264 | 12.44241 | 10807 ft | 305 kts | 114° |
| 2026-05-05 17:48 | 48.25524 | 12.47219 | 10487 ft | 304 kts | 114° |
| 2026-05-05 17:48 | 48.24786 | 12.50175 | 10167 ft | 302 kts | 114° |
| 2026-05-05 17:48 | 48.24049 | 12.53119 | 9848 ft | 299 kts | 114° |
| 2026-05-05 17:49 | 48.23325 | 12.56010 | 9616 ft | 294 kts | 114° |
| 2026-05-05 17:49 | 48.22604 | 12.58890 | 9383 ft | 295 kts | 114° |
| 2026-05-05 17:49 | 48.21885 | 12.61764 | 9075 ft | 294 kts | 114° |
| 2026-05-05 17:49 | 48.21169 | 12.64631 | 8767 ft | 293 kts | 114° |
| 2026-05-05 17:50 | 48.20455 | 12.67488 | 8456 ft | 292 kts | 114° |
| 2026-05-05 17:50 | 48.19741 | 12.70328 | 8173 ft | 291 kts | 114° |
| 2026-05-05 17:50 | 48.19027 | 12.73160 | 7871 ft | 290 kts | 113° |
| 2026-05-05 17:50 | 48.18313 | 12.75982 | 7561 ft | 289 kts | 114° |
| 2026-05-05 17:51 | 48.17603 | 12.78792 | 7262 ft | 287 kts | 114° |
| 2026-05-05 17:51 | 48.16677 | 12.81352 | 6956 ft | 282 kts | 131° |
| 2026-05-05 17:51 | 48.15263 | 12.83317 | 6663 ft | 277 kts | 150° |
| 2026-05-05 17:51 | 48.13531 | 12.84487 | 6364 ft | 271 kts | 168° |
| 2026-05-05 17:52 | 48.11696 | 12.85153 | 6072 ft | 271 kts | 169° |
| 2026-05-05 17:52 | 48.09855 | 12.85812 | 5782 ft | 272 kts | 168° |
| 2026-05-05 17:52 | 48.08019 | 12.86471 | 5491 ft | 272 kts | 168° |
| 2026-05-05 17:52 | 48.06192 | 12.87130 | 5290 ft | 261 kts | 169° |
| 2026-05-05 17:53 | 48.04504 | 12.87745 | 5195 ft | 238 kts | 168° |
| 2026-05-05 17:53 | 48.02942 | 12.88314 | 5107 ft | 225 kts | 168° |
| 2026-05-05 17:53 | 48.01460 | 12.88850 | 4993 ft | 212 kts | 169° |
| 2026-05-05 17:53 | 48.00059 | 12.89278 | 4918 ft | 200 kts | 178° |
| 2026-05-05 17:54 | 47.98681 | 12.89323 | 4832 ft | 197 kts | 182° |
| 2026-05-05 17:54 | 47.97324 | 12.89364 | 4743 ft | 199 kts | 182° |
| 2026-05-05 17:54 | 47.95959 | 12.89833 | 4648 ft | 206 kts | 160° |
| 2026-05-05 17:54 | 47.94668 | 12.90657 | 4477 ft | 196 kts | 159° |
| 2026-05-05 17:55 | 47.93442 | 12.91444 | 4210 ft | 188 kts | 160° |
| 2026-05-05 17:55 | 47.92265 | 12.92194 | 3965 ft | 180 kts | 160° |
| 2026-05-05 17:55 | 47.91150 | 12.92904 | 3747 ft | 168 kts | 160° |
| 2026-05-05 17:55 | 47.90124 | 12.93557 | 3528 ft | 154 kts | 161° |
| 2026-05-05 17:56 | 47.89159 | 12.94169 | 3332 ft | 148 kts | 161° |
| 2026-05-05 17:56 | 47.88221 | 12.94764 | 3144 ft | 146 kts | 161° |
| 2026-05-05 17:56 | 47.87288 | 12.95355 | 2954 ft | 146 kts | 161° |
| 2026-05-05 17:56 | 47.86356 | 12.95947 | 2767 ft | 145 kts | 160° |
| 2026-05-05 17:57 | 47.85425 | 12.96536 | 2552 ft | 145 kts | 160° |
| 2026-05-05 17:57 | 47.84498 | 12.97125 | 2366 ft | 144 kts | 159° |
| 2026-05-05 17:57 | 47.83582 | 12.97713 | 2184 ft | 142 kts | 159° |
| 2026-05-05 17:57 | 47.82668 | 12.98295 | 1948 ft | 144 kts | 158° |
| 2026-05-05 17:58 | 47.81754 | 12.98865 | 1744 ft | 142 kts | 159° |
| 2026-05-05 17:58 | 47.80837 | 12.99445 | 1578 ft | 141 kts | 155° |
| 2026-05-05 17:58 | 47.79954 | 12.99995 | 1425 ft | 137 kts | 154° |
| 2026-05-05 17:58 | 47.79197 | 13.00480 | 1420 ft | 95 kts | 157° |
| 2026-05-05 17:59 | 47.78817 | 13.00719 | 1423 ft | 37 kts | 157° |
| 2026-05-05 17:59 | 47.78659 | 13.00819 | 1422 ft | 12 kts | 156° |